sensor_id;sensor_type;location;lat;lon;timestamp;P1;durP1;ratioP1;P2;durP2;ratioP2
84444;SDS011;74683;48.402;10.596;2024-02-21T00:00:09;9.13;;;2.65;;
84444;SDS011;74683;48.402;10.596;2024-02-21T00:02:37;12.65;;;3.35;;
84444;SDS011;74683;48.402;10.596;2024-02-21T00:05:04;10.80;;;3.17;;
84444;SDS011;74683;48.402;10.596;2024-02-21T00:07:31;7.50;;;2.63;;
84444;SDS011;74683;48.402;10.596;2024-02-21T00:09:58;5.57;;;2.33;;
84444;SDS011;74683;48.402;10.596;2024-02-21T00:12:24;7.05;;;2.58;;
84444;SDS011;74683;48.402;10.596;2024-02-21T00:14:51;7.22;;;2.83;;
84444;SDS011;74683;48.402;10.596;2024-02-21T00:17:18;9.40;;;2.70;;
84444;SDS011;74683;48.402;10.596;2024-02-21T00:19:44;5.93;;;2.45;;
84444;SDS011;74683;48.402;10.596;2024-02-21T00:22:11;5.15;;;1.95;;
84444;SDS011;74683;48.402;10.596;2024-02-21T00:24:38;5.72;;;2.08;;
84444;SDS011;74683;48.402;10.596;2024-02-21T00:27:04;8.25;;;2.78;;
84444;SDS011;74683;48.402;10.596;2024-02-21T00:29:31;5.20;;;2.50;;
84444;SDS011;74683;48.402;10.596;2024-02-21T00:31:58;8.25;;;2.40;;
84444;SDS011;74683;48.402;10.596;2024-02-21T00:34:25;7.60;;;2.83;;
84444;SDS011;74683;48.402;10.596;2024-02-21T00:36:51;9.30;;;3.13;;
84444;SDS011;74683;48.402;10.596;2024-02-21T00:39:18;7.05;;;3.00;;
84444;SDS011;74683;48.402;10.596;2024-02-21T00:41:44;6.95;;;2.42;;
84444;SDS011;74683;48.402;10.596;2024-02-21T00:44:11;6.57;;;2.47;;
84444;SDS011;74683;48.402;10.596;2024-02-21T00:46:38;10.40;;;2.90;;
84444;SDS011;74683;48.402;10.596;2024-02-21T00:49:05;7.38;;;2.67;;
84444;SDS011;74683;48.402;10.596;2024-02-21T00:51:32;5.28;;;2.60;;
84444;SDS011;74683;48.402;10.596;2024-02-21T00:53:59;9.88;;;2.88;;
84444;SDS011;74683;48.402;10.596;2024-02-21T00:56:25;11.10;;;2.78;;
84444;SDS011;74683;48.402;10.596;2024-02-21T00:58:52;5.78;;;2.83;;
84444;SDS011;74683;48.402;10.596;2024-02-21T01:01:22;8.15;;;2.60;;
84444;SDS011;74683;48.402;10.596;2024-02-21T01:03:50;8.55;;;2.40;;
84444;SDS011;74683;48.402;10.596;2024-02-21T01:06:19;7.97;;;2.47;;
84444;SDS011;74683;48.402;10.596;2024-02-21T01:08:46;7.28;;;2.90;;
84444;SDS011;74683;48.402;10.596;2024-02-21T01:11:14;5.00;;;2.42;;
84444;SDS011;74683;48.402;10.596;2024-02-21T01:13:42;7.60;;;3.00;;
84444;SDS011;74683;48.402;10.596;2024-02-21T01:16:09;5.32;;;2.70;;
84444;SDS011;74683;48.402;10.596;2024-02-21T01:18:39;9.10;;;3.30;;
84444;SDS011;74683;48.402;10.596;2024-02-21T01:21:06;8.18;;;3.33;;
84444;SDS011;74683;48.402;10.596;2024-02-21T01:23:34;18.88;;;3.72;;
84444;SDS011;74683;48.402;10.596;2024-02-21T01:26:01;11.60;;;3.63;;
84444;SDS011;74683;48.402;10.596;2024-02-21T01:28:29;8.07;;;2.75;;
84444;SDS011;74683;48.402;10.596;2024-02-21T01:30:57;6.18;;;2.50;;
84444;SDS011;74683;48.402;10.596;2024-02-21T01:33:24;12.70;;;2.78;;
84444;SDS011;74683;48.402;10.596;2024-02-21T01:35:50;10.57;;;2.80;;
84444;SDS011;74683;48.402;10.596;2024-02-21T01:38:17;8.05;;;3.25;;
84444;SDS011;74683;48.402;10.596;2024-02-21T01:40:44;13.90;;;3.10;;
84444;SDS011;74683;48.402;10.596;2024-02-21T01:43:17;7.00;;;2.88;;
84444;SDS011;74683;48.402;10.596;2024-02-21T01:45:46;8.93;;;3.22;;
84444;SDS011;74683;48.402;10.596;2024-02-21T01:48:18;11.20;;;2.33;;
84444;SDS011;74683;48.402;10.596;2024-02-21T01:50:51;10.80;;;2.85;;
84444;SDS011;74683;48.402;10.596;2024-02-21T01:53:20;8.80;;;2.40;;
84444;SDS011;74683;48.402;10.596;2024-02-21T01:55:49;11.23;;;3.47;;
84444;SDS011;74683;48.402;10.596;2024-02-21T01:58:16;10.48;;;2.75;;
84444;SDS011;74683;48.402;10.596;2024-02-21T02:00:45;11.15;;;3.05;;
84444;SDS011;74683;48.402;10.596;2024-02-21T02:05:47;9.38;;;2.78;;
84444;SDS011;74683;48.402;10.596;2024-02-21T02:08:16;5.90;;;2.53;;
84444;SDS011;74683;48.402;10.596;2024-02-21T02:10:44;10.85;;;2.60;;
84444;SDS011;74683;48.402;10.596;2024-02-21T02:13:12;7.50;;;2.67;;
84444;SDS011;74683;48.402;10.596;2024-02-21T02:15:46;7.72;;;2.45;;
84444;SDS011;74683;48.402;10.596;2024-02-21T02:18:14;9.30;;;2.63;;
84444;SDS011;74683;48.402;10.596;2024-02-21T02:20:42;5.60;;;1.90;;
84444;SDS011;74683;48.402;10.596;2024-02-21T02:23:12;8.43;;;2.65;;
84444;SDS011;74683;48.402;10.596;2024-02-21T02:25:39;7.75;;;2.15;;
84444;SDS011;74683;48.402;10.596;2024-02-21T02:28:06;8.27;;;2.40;;
84444;SDS011;74683;48.402;10.596;2024-02-21T02:34:20;9.38;;;2.58;;
84444;SDS011;74683;48.402;10.596;2024-02-21T02:36:47;4.72;;;2.15;;
84444;SDS011;74683;48.402;10.596;2024-02-21T02:39:15;9.50;;;2.45;;
84444;SDS011;74683;48.402;10.596;2024-02-21T02:41:42;7.40;;;2.10;;
84444;SDS011;74683;48.402;10.596;2024-02-21T02:44:09;4.63;;;1.65;;
84444;SDS011;74683;48.402;10.596;2024-02-21T02:46:35;7.03;;;2.05;;
84444;SDS011;74683;48.402;10.596;2024-02-21T02:49:02;6.32;;;1.73;;
84444;SDS011;74683;48.402;10.596;2024-02-21T02:51:28;5.38;;;1.90;;
84444;SDS011;74683;48.402;10.596;2024-02-21T02:53:55;5.45;;;2.30;;
84444;SDS011;74683;48.402;10.596;2024-02-21T02:56:23;7.45;;;2.25;;
84444;SDS011;74683;48.402;10.596;2024-02-21T02:58:50;3.80;;;1.80;;
84444;SDS011;74683;48.402;10.596;2024-02-21T03:01:17;4.68;;;2.28;;
84444;SDS011;74683;48.402;10.596;2024-02-21T03:03:43;6.35;;;2.13;;
84444;SDS011;74683;48.402;10.596;2024-02-21T03:06:11;5.00;;;2.97;;
84444;SDS011;74683;48.402;10.596;2024-02-21T03:08:38;9.05;;;2.10;;
84444;SDS011;74683;48.402;10.596;2024-02-21T03:11:06;7.28;;;1.95;;
84444;SDS011;74683;48.402;10.596;2024-02-21T03:13:33;4.38;;;1.55;;
84444;SDS011;74683;48.402;10.596;2024-02-21T03:16:00;5.32;;;2.20;;
84444;SDS011;74683;48.402;10.596;2024-02-21T03:18:27;8.60;;;2.10;;
84444;SDS011;74683;48.402;10.596;2024-02-21T03:20:53;5.85;;;2.55;;
84444;SDS011;74683;48.402;10.596;2024-02-21T03:23:20;5.82;;;2.22;;
84444;SDS011;74683;48.402;10.596;2024-02-21T03:25:47;5.72;;;2.40;;
84444;SDS011;74683;48.402;10.596;2024-02-21T03:28:13;5.63;;;2.03;;
84444;SDS011;74683;48.402;10.596;2024-02-21T03:30:41;9.63;;;2.92;;
84444;SDS011;74683;48.402;10.596;2024-02-21T03:33:08;7.05;;;2.38;;
84444;SDS011;74683;48.402;10.596;2024-02-21T03:35:34;4.43;;;2.35;;
84444;SDS011;74683;48.402;10.596;2024-02-21T03:38:01;4.57;;;1.90;;
84444;SDS011;74683;48.402;10.596;2024-02-21T03:40:28;9.07;;;2.40;;
84444;SDS011;74683;48.402;10.596;2024-02-21T03:42:54;4.72;;;1.92;;
84444;SDS011;74683;48.402;10.596;2024-02-21T03:45:21;9.80;;;2.47;;
84444;SDS011;74683;48.402;10.596;2024-02-21T03:47:48;9.57;;;2.08;;
84444;SDS011;74683;48.402;10.596;2024-02-21T03:50:15;5.63;;;2.35;;
84444;SDS011;74683;48.402;10.596;2024-02-21T03:52:42;8.32;;;1.92;;
84444;SDS011;74683;48.402;10.596;2024-02-21T03:55:08;6.40;;;1.88;;
84444;SDS011;74683;48.402;10.596;2024-02-21T03:57:35;4.93;;;2.33;;
84444;SDS011;74683;48.402;10.596;2024-02-21T04:00:02;6.60;;;2.35;;
84444;SDS011;74683;48.402;10.596;2024-02-21T04:02:29;4.65;;;1.92;;
84444;SDS011;74683;48.402;10.596;2024-02-21T04:04:56;4.68;;;2.45;;
84444;SDS011;74683;48.402;10.596;2024-02-21T04:07:22;5.70;;;2.20;;
84444;SDS011;74683;48.402;10.596;2024-02-21T04:09:49;4.57;;;1.95;;
84444;SDS011;74683;48.402;10.596;2024-02-21T04:12:16;7.40;;;2.75;;
84444;SDS011;74683;48.402;10.596;2024-02-21T04:14:42;7.10;;;2.22;;
84444;SDS011;74683;48.402;10.596;2024-02-21T04:17:12;9.77;;;2.58;;
84444;SDS011;74683;48.402;10.596;2024-02-21T04:19:39;11.90;;;2.90;;
84444;SDS011;74683;48.402;10.596;2024-02-21T04:22:06;16.85;;;7.13;;
84444;SDS011;74683;48.402;10.596;2024-02-21T04:24:32;8.63;;;3.45;;
84444;SDS011;74683;48.402;10.596;2024-02-21T04:26:59;10.57;;;2.67;;
84444;SDS011;74683;48.402;10.596;2024-02-21T04:29:25;9.23;;;2.85;;
84444;SDS011;74683;48.402;10.596;2024-02-21T04:31:54;7.60;;;2.58;;
84444;SDS011;74683;48.402;10.596;2024-02-21T04:34:20;3.00;;;1.73;;
84444;SDS011;74683;48.402;10.596;2024-02-21T04:36:47;5.80;;;1.80;;
84444;SDS011;74683;48.402;10.596;2024-02-21T04:39:14;2.60;;;1.58;;
84444;SDS011;74683;48.402;10.596;2024-02-21T04:41:41;4.82;;;1.95;;
84444;SDS011;74683;48.402;10.596;2024-02-21T04:44:07;8.82;;;2.15;;
84444;SDS011;74683;48.402;10.596;2024-02-21T04:46:35;6.47;;;1.70;;
84444;SDS011;74683;48.402;10.596;2024-02-21T04:49:01;4.70;;;2.20;;
84444;SDS011;74683;48.402;10.596;2024-02-21T04:51:28;13.27;;;2.28;;
84444;SDS011;74683;48.402;10.596;2024-02-21T04:53:55;4.90;;;2.58;;
84444;SDS011;74683;48.402;10.596;2024-02-21T04:56:21;2.40;;;1.77;;
84444;SDS011;74683;48.402;10.596;2024-02-21T04:58:48;5.55;;;1.50;;
84444;SDS011;74683;48.402;10.596;2024-02-21T05:01:15;5.78;;;2.15;;
84444;SDS011;74683;48.402;10.596;2024-02-21T05:03:42;7.32;;;2.20;;
84444;SDS011;74683;48.402;10.596;2024-02-21T05:06:08;4.55;;;2.13;;
84444;SDS011;74683;48.402;10.596;2024-02-21T05:08:35;6.25;;;1.70;;
84444;SDS011;74683;48.402;10.596;2024-02-21T05:11:01;8.68;;;2.00;;
84444;SDS011;74683;48.402;10.596;2024-02-21T05:13:29;6.18;;;1.92;;
84444;SDS011;74683;48.402;10.596;2024-02-21T05:15:55;6.70;;;2.00;;
84444;SDS011;74683;48.402;10.596;2024-02-21T05:18:22;3.72;;;1.80;;
84444;SDS011;74683;48.402;10.596;2024-02-21T05:20:49;6.65;;;2.53;;
84444;SDS011;74683;48.402;10.596;2024-02-21T05:23:15;4.32;;;2.00;;
84444;SDS011;74683;48.402;10.596;2024-02-21T05:25:42;5.07;;;2.13;;
84444;SDS011;74683;48.402;10.596;2024-02-21T05:28:09;6.10;;;2.10;;
84444;SDS011;74683;48.402;10.596;2024-02-21T05:30:35;4.88;;;2.63;;
84444;SDS011;74683;48.402;10.596;2024-02-21T05:33:05;4.45;;;2.05;;
84444;SDS011;74683;48.402;10.596;2024-02-21T05:35:32;4.30;;;2.20;;
84444;SDS011;74683;48.402;10.596;2024-02-21T05:38:00;3.15;;;1.65;;
84444;SDS011;74683;48.402;10.596;2024-02-21T05:40:27;6.18;;;1.80;;
84444;SDS011;74683;48.402;10.596;2024-02-21T05:42:54;3.58;;;1.50;;
84444;SDS011;74683;48.402;10.596;2024-02-21T05:45:20;4.20;;;1.42;;
84444;SDS011;74683;48.402;10.596;2024-02-21T05:47:47;2.90;;;1.30;;
84444;SDS011;74683;48.402;10.596;2024-02-21T05:50:14;3.47;;;1.60;;
84444;SDS011;74683;48.402;10.596;2024-02-21T05:52:41;6.13;;;1.90;;
84444;SDS011;74683;48.402;10.596;2024-02-21T05:55:08;4.13;;;1.77;;
84444;SDS011;74683;48.402;10.596;2024-02-21T05:57:35;4.18;;;1.67;;
84444;SDS011;74683;48.402;10.596;2024-02-21T06:00:05;5.95;;;1.55;;
84444;SDS011;74683;48.402;10.596;2024-02-21T06:02:32;6.53;;;2.10;;
84444;SDS011;74683;48.402;10.596;2024-02-21T06:04:59;3.40;;;1.65;;
84444;SDS011;74683;48.402;10.596;2024-02-21T06:07:26;5.43;;;1.58;;
84444;SDS011;74683;48.402;10.596;2024-02-21T06:09:52;3.85;;;1.13;;
84444;SDS011;74683;48.402;10.596;2024-02-21T06:12:19;3.78;;;1.38;;
84444;SDS011;74683;48.402;10.596;2024-02-21T06:14:46;4.53;;;1.38;;
84444;SDS011;74683;48.402;10.596;2024-02-21T06:17:12;4.75;;;1.40;;
84444;SDS011;74683;48.402;10.596;2024-02-21T06:19:40;4.03;;;1.70;;
84444;SDS011;74683;48.402;10.596;2024-02-21T06:22:08;5.97;;;1.48;;
84444;SDS011;74683;48.402;10.596;2024-02-21T06:24:35;2.72;;;1.58;;
84444;SDS011;74683;48.402;10.596;2024-02-21T06:27:05;3.60;;;1.42;;
84444;SDS011;74683;48.402;10.596;2024-02-21T06:29:36;4.18;;;1.65;;
84444;SDS011;74683;48.402;10.596;2024-02-21T06:32:03;3.30;;;1.20;;
84444;SDS011;74683;48.402;10.596;2024-02-21T06:34:31;2.10;;;1.50;;
84444;SDS011;74683;48.402;10.596;2024-02-21T06:37:00;3.95;;;1.85;;
84444;SDS011;74683;48.402;10.596;2024-02-21T06:39:27;3.55;;;1.42;;
84444;SDS011;74683;48.402;10.596;2024-02-21T06:41:55;4.38;;;1.50;;
84444;SDS011;74683;48.402;10.596;2024-02-21T06:44:27;7.70;;;2.55;;
84444;SDS011;74683;48.402;10.596;2024-02-21T06:46:54;4.30;;;1.70;;
84444;SDS011;74683;48.402;10.596;2024-02-21T06:49:21;5.50;;;2.05;;
84444;SDS011;74683;48.402;10.596;2024-02-21T06:51:48;4.13;;;1.65;;
84444;SDS011;74683;48.402;10.596;2024-02-21T06:54:15;4.65;;;2.00;;
84444;SDS011;74683;48.402;10.596;2024-02-21T06:56:41;7.78;;;2.20;;
84444;SDS011;74683;48.402;10.596;2024-02-21T06:59:08;3.03;;;1.50;;
84444;SDS011;74683;48.402;10.596;2024-02-21T07:01:35;5.47;;;1.20;;
84444;SDS011;74683;48.402;10.596;2024-02-21T07:04:02;6.70;;;1.30;;
84444;SDS011;74683;48.402;10.596;2024-02-21T07:06:28;4.53;;;1.60;;
84444;SDS011;74683;48.402;10.596;2024-02-21T07:08:58;2.30;;;1.33;;
84444;SDS011;74683;48.402;10.596;2024-02-21T07:11:25;4.40;;;1.77;;
84444;SDS011;74683;48.402;10.596;2024-02-21T07:13:52;7.03;;;2.85;;
84444;SDS011;74683;48.402;10.596;2024-02-21T07:16:19;4.78;;;2.63;;
84444;SDS011;74683;48.402;10.596;2024-02-21T07:18:45;4.25;;;2.90;;
84444;SDS011;74683;48.402;10.596;2024-02-21T07:21:13;4.47;;;1.95;;
84444;SDS011;74683;48.402;10.596;2024-02-21T07:23:41;12.63;;;4.68;;
84444;SDS011;74683;48.402;10.596;2024-02-21T07:26:08;8.73;;;3.42;;
84444;SDS011;74683;48.402;10.596;2024-02-21T07:28:35;9.23;;;3.00;;
84444;SDS011;74683;48.402;10.596;2024-02-21T07:31:02;5.97;;;2.83;;
84444;SDS011;74683;48.402;10.596;2024-02-21T07:33:29;12.43;;;2.38;;
84444;SDS011;74683;48.402;10.596;2024-02-21T07:35:57;7.22;;;3.13;;
84444;SDS011;74683;48.402;10.596;2024-02-21T07:38:23;13.25;;;4.05;;
84444;SDS011;74683;48.402;10.596;2024-02-21T07:40:50;8.43;;;3.85;;
84444;SDS011;74683;48.402;10.596;2024-02-21T07:43:17;8.27;;;3.63;;
84444;SDS011;74683;48.402;10.596;2024-02-21T07:45:43;4.82;;;2.30;;
84444;SDS011;74683;48.402;10.596;2024-02-21T07:48:10;9.77;;;3.00;;
84444;SDS011;74683;48.402;10.596;2024-02-21T07:50:37;6.05;;;2.88;;
84444;SDS011;74683;48.402;10.596;2024-02-21T07:53:04;9.73;;;3.20;;
84444;SDS011;74683;48.402;10.596;2024-02-21T07:55:30;5.70;;;2.03;;
84444;SDS011;74683;48.402;10.596;2024-02-21T07:57:57;7.22;;;1.77;;
84444;SDS011;74683;48.402;10.596;2024-02-21T08:00:24;4.65;;;1.98;;
84444;SDS011;74683;48.402;10.596;2024-02-21T08:02:50;8.20;;;2.20;;
84444;SDS011;74683;48.402;10.596;2024-02-21T08:05:17;11.02;;;4.40;;
84444;SDS011;74683;48.402;10.596;2024-02-21T08:07:44;7.97;;;3.08;;
84444;SDS011;74683;48.402;10.596;2024-02-21T08:10:10;4.25;;;1.98;;
84444;SDS011;74683;48.402;10.596;2024-02-21T08:12:37;6.97;;;2.90;;
84444;SDS011;74683;48.402;10.596;2024-02-21T08:15:05;6.53;;;2.60;;
84444;SDS011;74683;48.402;10.596;2024-02-21T08:17:32;5.30;;;1.88;;
84444;SDS011;74683;48.402;10.596;2024-02-21T08:19:59;4.38;;;1.48;;
84444;SDS011;74683;48.402;10.596;2024-02-21T08:22:26;4.20;;;1.88;;
84444;SDS011;74683;48.402;10.596;2024-02-21T08:24:53;5.32;;;1.50;;
84444;SDS011;74683;48.402;10.596;2024-02-21T08:27:20;5.43;;;1.50;;
84444;SDS011;74683;48.402;10.596;2024-02-21T08:29:46;3.70;;;1.40;;
84444;SDS011;74683;48.402;10.596;2024-02-21T08:32:13;4.20;;;0.90;;
84444;SDS011;74683;48.402;10.596;2024-02-21T08:34:39;6.75;;;1.00;;
84444;SDS011;74683;48.402;10.596;2024-02-21T08:37:06;1.85;;;0.90;;
84444;SDS011;74683;48.402;10.596;2024-02-21T08:39:33;7.20;;;1.23;;
84444;SDS011;74683;48.402;10.596;2024-02-21T08:41:59;2.75;;;1.10;;
84444;SDS011;74683;48.402;10.596;2024-02-21T08:44:27;3.78;;;0.98;;
84444;SDS011;74683;48.402;10.596;2024-02-21T08:46:54;3.05;;;0.90;;
84444;SDS011;74683;48.402;10.596;2024-02-21T08:49:22;4.50;;;1.48;;
84444;SDS011;74683;48.402;10.596;2024-02-21T08:51:49;1.75;;;0.80;;
84444;SDS011;74683;48.402;10.596;2024-02-21T08:54:16;1.75;;;0.77;;
84444;SDS011;74683;48.402;10.596;2024-02-21T08:56:43;3.50;;;0.95;;
84444;SDS011;74683;48.402;10.596;2024-02-21T08:59:09;3.85;;;1.00;;
84444;SDS011;74683;48.402;10.596;2024-02-21T09:01:36;2.03;;;0.90;;
84444;SDS011;74683;48.402;10.596;2024-02-21T09:04:03;8.95;;;0.93;;
84444;SDS011;74683;48.402;10.596;2024-02-21T09:06:32;3.50;;;0.85;;
84444;SDS011;74683;48.402;10.596;2024-02-21T09:09:00;5.38;;;1.48;;
84444;SDS011;74683;48.402;10.596;2024-02-21T09:11:27;4.85;;;1.27;;
84444;SDS011;74683;48.402;10.596;2024-02-21T09:13:54;2.70;;;0.90;;
84444;SDS011;74683;48.402;10.596;2024-02-21T09:16:21;2.35;;;0.73;;
84444;SDS011;74683;48.402;10.596;2024-02-21T09:18:49;3.42;;;1.05;;
84444;SDS011;74683;48.402;10.596;2024-02-21T09:21:18;5.30;;;0.95;;
84444;SDS011;74683;48.402;10.596;2024-02-21T09:23:45;4.57;;;1.30;;
84444;SDS011;74683;48.402;10.596;2024-02-21T09:26:12;2.25;;;1.15;;
84444;SDS011;74683;48.402;10.596;2024-02-21T09:28:42;5.47;;;0.90;;
84444;SDS011;74683;48.402;10.596;2024-02-21T09:31:12;3.10;;;1.30;;
84444;SDS011;74683;48.402;10.596;2024-02-21T09:33:39;3.97;;;1.33;;
84444;SDS011;74683;48.402;10.596;2024-02-21T09:36:06;4.78;;;1.10;;
84444;SDS011;74683;48.402;10.596;2024-02-21T09:38:32;6.05;;;1.13;;
84444;SDS011;74683;48.402;10.596;2024-02-21T09:40:59;6.88;;;1.13;;
84444;SDS011;74683;48.402;10.596;2024-02-21T09:43:34;4.65;;;1.13;;
84444;SDS011;74683;48.402;10.596;2024-02-21T09:46:01;1.83;;;0.65;;
84444;SDS011;74683;48.402;10.596;2024-02-21T09:51:07;3.03;;;1.20;;
84444;SDS011;74683;48.402;10.596;2024-02-21T09:53:37;4.13;;;1.13;;
84444;SDS011;74683;48.402;10.596;2024-02-21T09:56:05;2.08;;;1.08;;
84444;SDS011;74683;48.402;10.596;2024-02-21T09:58:37;4.13;;;1.35;;
84444;SDS011;74683;48.402;10.596;2024-02-21T10:01:04;8.48;;;2.05;;
84444;SDS011;74683;48.402;10.596;2024-02-21T10:03:50;4.60;;;1.35;;
84444;SDS011;74683;48.402;10.596;2024-02-21T10:06:18;4.65;;;1.02;;
84444;SDS011;74683;48.402;10.596;2024-02-21T10:08:51;2.15;;;0.57;;
84444;SDS011;74683;48.402;10.596;2024-02-21T10:11:25;2.55;;;0.70;;
84444;SDS011;74683;48.402;10.596;2024-02-21T10:14:02;5.20;;;1.23;;
84444;SDS011;74683;48.402;10.596;2024-02-21T10:16:31;2.42;;;0.85;;
84444;SDS011;74683;48.402;10.596;2024-02-21T10:18:59;2.65;;;1.20;;
84444;SDS011;74683;48.402;10.596;2024-02-21T10:21:26;3.17;;;0.93;;
84444;SDS011;74683;48.402;10.596;2024-02-21T10:23:53;5.22;;;0.73;;
84444;SDS011;74683;48.402;10.596;2024-02-21T10:26:20;2.85;;;1.02;;
84444;SDS011;74683;48.402;10.596;2024-02-21T10:28:47;4.50;;;1.75;;
84444;SDS011;74683;48.402;10.596;2024-02-21T10:31:21;2.20;;;1.15;;
84444;SDS011;74683;48.402;10.596;2024-02-21T10:33:57;3.13;;;0.70;;
84444;SDS011;74683;48.402;10.596;2024-02-21T10:36:28;4.13;;;1.00;;
84444;SDS011;74683;48.402;10.596;2024-02-21T10:38:55;3.08;;;0.75;;
84444;SDS011;74683;48.402;10.596;2024-02-21T10:41:23;1.55;;;0.75;;
84444;SDS011;74683;48.402;10.596;2024-02-21T10:43:53;2.38;;;0.80;;
84444;SDS011;74683;48.402;10.596;2024-02-21T10:46:22;3.00;;;0.60;;
84444;SDS011;74683;48.402;10.596;2024-02-21T10:51:48;1.40;;;0.70;;
84444;SDS011;74683;48.402;10.596;2024-02-21T10:56:56;2.38;;;0.60;;
84444;SDS011;74683;48.402;10.596;2024-02-21T10:59:24;3.03;;;0.55;;
84444;SDS011;74683;48.402;10.596;2024-02-21T11:01:52;4.50;;;0.93;;
84444;SDS011;74683;48.402;10.596;2024-02-21T11:04:24;2.58;;;0.80;;
84444;SDS011;74683;48.402;10.596;2024-02-21T11:06:52;3.38;;;0.80;;
84444;SDS011;74683;48.402;10.596;2024-02-21T11:09:28;1.25;;;0.65;;
84444;SDS011;74683;48.402;10.596;2024-02-21T11:11:57;4.80;;;0.90;;
84444;SDS011;74683;48.402;10.596;2024-02-21T11:14:26;2.95;;;0.80;;
84444;SDS011;74683;48.402;10.596;2024-02-21T11:16:54;1.92;;;0.90;;
84444;SDS011;74683;48.402;10.596;2024-02-21T11:19:23;2.65;;;0.82;;
84444;SDS011;74683;48.402;10.596;2024-02-21T11:21:52;2.05;;;0.70;;
84444;SDS011;74683;48.402;10.596;2024-02-21T11:24:29;1.98;;;0.60;;
84444;SDS011;74683;48.402;10.596;2024-02-21T11:29:46;1.58;;;0.70;;
84444;SDS011;74683;48.402;10.596;2024-02-21T11:32:17;1.67;;;0.60;;
84444;SDS011;74683;48.402;10.596;2024-02-21T11:35:01;3.33;;;0.60;;
84444;SDS011;74683;48.402;10.596;2024-02-21T11:40:00;2.95;;;0.63;;
84444;SDS011;74683;48.402;10.596;2024-02-21T11:42:27;3.60;;;0.85;;
84444;SDS011;74683;48.402;10.596;2024-02-21T11:44:59;0.32;;;0.30;;
84444;SDS011;74683;48.402;10.596;2024-02-21T11:47:28;1.42;;;0.60;;
84444;SDS011;74683;48.402;10.596;2024-02-21T11:49:55;3.65;;;0.80;;
84444;SDS011;74683;48.402;10.596;2024-02-21T11:52:22;3.65;;;0.93;;
84444;SDS011;74683;48.402;10.596;2024-02-21T11:54:54;3.72;;;0.75;;
84444;SDS011;74683;48.402;10.596;2024-02-21T11:57:24;2.22;;;1.48;;
84444;SDS011;74683;48.402;10.596;2024-02-21T11:59:51;2.00;;;0.75;;
84444;SDS011;74683;48.402;10.596;2024-02-21T12:02:25;1.10;;;0.43;;
84444;SDS011;74683;48.402;10.596;2024-02-21T12:07:21;1.90;;;0.70;;
84444;SDS011;74683;48.402;10.596;2024-02-21T12:09:50;1.08;;;0.63;;
84444;SDS011;74683;48.402;10.596;2024-02-21T12:12:19;2.70;;;0.57;;
84444;SDS011;74683;48.402;10.596;2024-02-21T12:14:53;1.13;;;0.50;;
84444;SDS011;74683;48.402;10.596;2024-02-21T12:17:26;1.17;;;0.50;;
84444;SDS011;74683;48.402;10.596;2024-02-21T12:19:52;1.60;;;0.47;;
84444;SDS011;74683;48.402;10.596;2024-02-21T12:22:19;2.05;;;0.70;;
84444;SDS011;74683;48.402;10.596;2024-02-21T12:24:46;5.30;;;0.60;;
84444;SDS011;74683;48.402;10.596;2024-02-21T12:27:14;1.55;;;0.35;;
84444;SDS011;74683;48.402;10.596;2024-02-21T12:29:41;8.25;;;0.73;;
84444;SDS011;74683;48.402;10.596;2024-02-21T12:32:08;3.50;;;1.20;;
84444;SDS011;74683;48.402;10.596;2024-02-21T12:34:35;1.42;;;0.85;;
84444;SDS011;74683;48.402;10.596;2024-02-21T12:37:18;1.60;;;0.50;;
84444;SDS011;74683;48.402;10.596;2024-02-21T12:39:47;2.63;;;0.70;;
84444;SDS011;74683;48.402;10.596;2024-02-21T12:42:14;2.47;;;1.30;;
84444;SDS011;74683;48.402;10.596;2024-02-21T12:44:40;2.10;;;0.90;;
84444;SDS011;74683;48.402;10.596;2024-02-21T12:47:11;1.30;;;0.50;;
84444;SDS011;74683;48.402;10.596;2024-02-21T12:49:40;2.38;;;0.50;;
84444;SDS011;74683;48.402;10.596;2024-02-21T12:52:11;1.83;;;0.70;;
84444;SDS011;74683;48.402;10.596;2024-02-21T12:54:38;1.67;;;0.85;;
84444;SDS011;74683;48.402;10.596;2024-02-21T12:57:04;1.67;;;0.63;;
84444;SDS011;74683;48.402;10.596;2024-02-21T12:59:31;2.80;;;0.90;;
84444;SDS011;74683;48.402;10.596;2024-02-21T13:01:58;1.63;;;0.50;;
84444;SDS011;74683;48.402;10.596;2024-02-21T13:04:24;0.60;;;0.30;;
84444;SDS011;74683;48.402;10.596;2024-02-21T13:06:51;1.00;;;0.60;;
84444;SDS011;74683;48.402;10.596;2024-02-21T13:09:18;1.77;;;0.40;;
84444;SDS011;74683;48.402;10.596;2024-02-21T13:11:45;1.45;;;0.32;;
84444;SDS011;74683;48.402;10.596;2024-02-21T13:14:12;14.80;;;0.88;;
84444;SDS011;74683;48.402;10.596;2024-02-21T13:16:39;1.88;;;0.60;;
84444;SDS011;74683;48.402;10.596;2024-02-21T13:19:06;1.48;;;0.60;;
84444;SDS011;74683;48.402;10.596;2024-02-21T13:21:35;2.38;;;0.30;;
84444;SDS011;74683;48.402;10.596;2024-02-21T13:24:01;1.02;;;0.40;;
84444;SDS011;74683;48.402;10.596;2024-02-21T13:26:28;2.17;;;0.73;;
84444;SDS011;74683;48.402;10.596;2024-02-21T13:28:55;4.85;;;2.17;;
84444;SDS011;74683;48.402;10.596;2024-02-21T13:31:22;0.90;;;0.60;;
84444;SDS011;74683;48.402;10.596;2024-02-21T13:33:48;2.40;;;0.50;;
84444;SDS011;74683;48.402;10.596;2024-02-21T13:36:15;1.55;;;0.40;;
84444;SDS011;74683;48.402;10.596;2024-02-21T13:38:42;2.20;;;0.73;;
84444;SDS011;74683;48.402;10.596;2024-02-21T13:41:09;1.25;;;0.45;;
84444;SDS011;74683;48.402;10.596;2024-02-21T13:43:35;1.55;;;0.60;;
84444;SDS011;74683;48.402;10.596;2024-02-21T13:46:02;3.00;;;0.60;;
84444;SDS011;74683;48.402;10.596;2024-02-21T13:48:31;1.05;;;0.47;;
84444;SDS011;74683;48.402;10.596;2024-02-21T13:50:59;0.40;;;0.35;;
84444;SDS011;74683;48.402;10.596;2024-02-21T13:53:28;1.42;;;0.40;;
84444;SDS011;74683;48.402;10.596;2024-02-21T13:55:55;1.92;;;0.40;;
84444;SDS011;74683;48.402;10.596;2024-02-21T13:58:22;1.05;;;0.40;;
84444;SDS011;74683;48.402;10.596;2024-02-21T14:00:52;1.17;;;0.40;;
84444;SDS011;74683;48.402;10.596;2024-02-21T14:03:19;0.75;;;0.50;;
84444;SDS011;74683;48.402;10.596;2024-02-21T14:05:46;2.10;;;0.60;;
84444;SDS011;74683;48.402;10.596;2024-02-21T14:10:41;1.77;;;0.40;;
84444;SDS011;74683;48.402;10.596;2024-02-21T14:13:09;0.57;;;0.40;;
84444;SDS011;74683;48.402;10.596;2024-02-21T14:15:35;2.03;;;0.60;;
84444;SDS011;74683;48.402;10.596;2024-02-21T14:18:04;1.50;;;0.47;;
84444;SDS011;74683;48.402;10.596;2024-02-21T14:20:35;1.58;;;0.40;;
84444;SDS011;74683;48.402;10.596;2024-02-21T14:23:02;0.88;;;0.30;;
84444;SDS011;74683;48.402;10.596;2024-02-21T14:25:29;0.95;;;0.40;;
84444;SDS011;74683;48.402;10.596;2024-02-21T14:27:55;1.63;;;0.30;;
84444;SDS011;74683;48.402;10.596;2024-02-21T14:30:22;0.60;;;0.40;;
84444;SDS011;74683;48.402;10.596;2024-02-21T14:32:48;1.35;;;0.35;;
84444;SDS011;74683;48.402;10.596;2024-02-21T14:35:15;1.70;;;0.38;;
84444;SDS011;74683;48.402;10.596;2024-02-21T14:37:42;1.42;;;0.60;;
84444;SDS011;74683;48.402;10.596;2024-02-21T14:40:09;2.78;;;0.57;;
84444;SDS011;74683;48.402;10.596;2024-02-21T14:42:36;1.17;;;0.32;;
84444;SDS011;74683;48.402;10.596;2024-02-21T14:45:03;2.85;;;0.50;;
84444;SDS011;74683;48.402;10.596;2024-02-21T14:47:31;0.35;;;0.25;;
84444;SDS011;74683;48.402;10.596;2024-02-21T14:49:59;2.28;;;0.75;;
84444;SDS011;74683;48.402;10.596;2024-02-21T14:52:26;1.58;;;0.50;;
84444;SDS011;74683;48.402;10.596;2024-02-21T14:54:54;3.00;;;0.95;;
84444;SDS011;74683;48.402;10.596;2024-02-21T14:57:22;3.55;;;1.60;;
84444;SDS011;74683;48.402;10.596;2024-02-21T14:59:49;5.90;;;2.63;;